createdAt,value
2023-01-23T00:01:29.667Z,13.83
2023-01-23T00:03:57.607Z,15.07
2023-01-23T00:06:24.767Z,14.07
2023-01-23T00:08:51.515Z,14.37
2023-01-23T00:11:21.606Z,13.47
2023-01-23T00:13:48.647Z,15.33
2023-01-23T00:16:17.823Z,14.23
2023-01-23T00:18:44.925Z,14.57
2023-01-23T00:21:19.216Z,15.23
2023-01-23T00:23:49.759Z,14.43
2023-01-23T00:26:19.255Z,14.13
2023-01-23T00:28:47.425Z,15.93
2023-01-23T00:31:17.333Z,14.37
2023-01-23T00:33:44.650Z,16.00
2023-01-23T00:36:12.868Z,14.67
2023-01-23T00:38:40.037Z,15.63
2023-01-23T00:41:07.012Z,15.77
2023-01-23T00:43:33.920Z,14.43
2023-01-23T00:46:00.675Z,15.63
2023-01-23T00:48:27.601Z,15.53
2023-01-23T00:50:54.526Z,16.50
2023-01-23T00:53:21.747Z,15.17
2023-01-23T00:55:48.443Z,16.10
2023-01-23T00:58:15.201Z,14.87
2023-01-23T01:00:41.847Z,15.67
2023-01-23T01:03:08.913Z,15.33
2023-01-23T01:05:35.697Z,15.60
2023-01-23T01:08:02.365Z,15.53
2023-01-23T01:10:29.696Z,16.47
2023-01-23T01:12:57.681Z,16.93
2023-01-23T01:15:24.955Z,16.80
2023-01-23T01:17:54.139Z,17.60
2023-01-23T01:20:23.700Z,15.90
2023-01-23T01:22:50.941Z,17.27
2023-01-23T01:25:18.333Z,16.83
2023-01-23T01:27:45.640Z,16.83
2023-01-23T01:30:13.088Z,16.70
2023-01-23T01:32:41.653Z,15.83
2023-01-23T01:35:09.725Z,16.27
2023-01-23T01:37:37.721Z,17.20
2023-01-23T01:40:06.567Z,17.30
2023-01-23T01:42:40.176Z,17.63
2023-01-23T01:45:07.606Z,16.43
2023-01-23T01:47:34.875Z,16.43
2023-01-23T01:50:04.757Z,16.10
2023-01-23T01:52:31.478Z,16.13
2023-01-23T01:55:03.004Z,16.87
2023-01-23T01:57:31.091Z,17.60
2023-01-23T02:00:17.099Z,15.30
2023-01-23T02:02:51.263Z,16.97
2023-01-23T02:05:22.039Z,15.80
2023-01-23T02:07:54.649Z,17.83
2023-01-23T02:10:22.560Z,17.33
2023-01-23T02:12:50.766Z,17.73
2023-01-23T02:15:18.523Z,17.20
2023-01-23T02:17:47.126Z,18.07
2023-01-23T02:20:24.054Z,17.17
2023-01-23T02:22:55.876Z,17.07
2023-01-23T02:25:42.830Z,17.07
2023-01-23T02:28:14.997Z,16.27
2023-01-23T02:30:46.721Z,17.80
2023-01-23T02:33:25.218Z,16.93
2023-01-23T02:35:51.857Z,16.80
2023-01-23T02:38:22.555Z,17.07
2023-01-23T02:40:49.209Z,16.03
2023-01-23T02:43:19.891Z,18.03
2023-01-23T02:45:46.799Z,16.93
2023-01-23T02:48:13.871Z,16.80
2023-01-23T02:50:40.984Z,17.23
2023-01-23T02:53:07.638Z,18.20
2023-01-23T02:55:34.532Z,17.83
2023-01-23T02:58:20.327Z,18.27
2023-01-23T03:00:47.768Z,17.63
2023-01-23T03:03:15.984Z,17.70
2023-01-23T03:05:42.724Z,18.43
2023-01-23T03:08:09.423Z,17.40
2023-01-23T03:10:36.209Z,16.93
2023-01-23T03:13:04.616Z,16.50
2023-01-23T03:15:31.571Z,18.77
2023-01-23T03:17:58.259Z,16.40
2023-01-23T03:20:26.800Z,17.93
2023-01-23T03:22:54.072Z,16.07
2023-01-23T03:25:20.816Z,18.30
2023-01-23T03:27:47.876Z,17.90
2023-01-23T03:30:16.950Z,17.73
2023-01-23T03:32:44.820Z,18.43
2023-01-23T03:35:16.499Z,18.00
2023-01-23T03:37:44.221Z,17.77
2023-01-23T03:40:43.021Z,16.73
2023-01-23T03:43:10.778Z,17.80
2023-01-23T03:45:37.444Z,18.00
2023-01-23T03:48:04.193Z,18.37
2023-01-23T03:50:30.888Z,19.00
2023-01-23T03:52:57.536Z,18.27
2023-01-23T03:55:24.178Z,18.37
2023-01-23T03:57:50.899Z,17.90
2023-01-23T04:00:18.372Z,16.77
2023-01-23T04:02:45.206Z,18.60
2023-01-23T04:05:11.914Z,17.30
2023-01-23T04:07:38.640Z,17.73
2023-01-23T04:10:05.587Z,19.03
2023-01-23T04:12:32.244Z,18.03
2023-01-23T04:14:58.900Z,18.27
2023-01-23T04:17:25.645Z,19.87
2023-01-23T04:19:52.288Z,18.23
2023-01-23T04:22:18.936Z,18.90
2023-01-23T04:24:45.610Z,18.13
2023-01-23T04:27:12.294Z,18.93
2023-01-23T04:29:38.990Z,17.60
2023-01-23T04:32:05.724Z,18.20
2023-01-23T04:34:32.438Z,18.13
2023-01-23T04:36:59.468Z,18.30
2023-01-23T04:39:26.278Z,18.60
2023-01-23T04:41:52.941Z,18.00
2023-01-23T04:44:22.744Z,17.93
2023-01-23T04:46:53.159Z,18.00
2023-01-23T04:49:24.191Z,18.93
2023-01-23T04:51:52.193Z,18.47
2023-01-23T04:54:19.805Z,17.83
2023-01-23T04:56:46.993Z,18.27
2023-01-23T04:59:15.848Z,18.77
2023-01-23T05:01:43.206Z,18.23
2023-01-23T05:04:09.920Z,17.93
2023-01-23T05:06:36.713Z,17.53
2023-01-23T05:09:03.418Z,17.53
2023-01-23T05:11:30.533Z,18.63
2023-01-23T05:13:57.245Z,17.93
2023-01-23T05:16:23.895Z,17.67
2023-01-23T05:18:50.559Z,17.63
2023-01-23T05:21:17.216Z,18.47
2023-01-23T05:23:43.866Z,18.07
2023-01-23T05:26:10.536Z,18.43
2023-01-23T05:28:37.239Z,17.97
2023-01-23T05:31:04.127Z,17.60
2023-01-23T05:33:30.956Z,18.60
2023-01-23T05:36:01.189Z,17.27
2023-01-23T05:38:27.942Z,19.23
2023-01-23T05:40:54.597Z,18.23
2023-01-23T05:43:21.277Z,17.27
2023-01-23T05:45:47.957Z,18.30
2023-01-23T05:48:15.072Z,19.37
2023-01-23T05:50:41.809Z,18.03
2023-01-23T05:53:08.468Z,19.17
2023-01-23T05:55:37.201Z,17.73
2023-01-23T05:58:03.977Z,17.77
2023-01-23T06:00:30.645Z,18.80
2023-01-23T06:02:57.445Z,17.77
2023-01-23T06:05:24.157Z,19.40
2023-01-23T06:07:50.911Z,18.60
2023-01-23T06:10:18.090Z,19.50
2023-01-23T06:12:44.891Z,19.33
2023-01-23T06:15:12.038Z,18.97
2023-01-23T06:17:38.825Z,18.63
2023-01-23T06:20:06.058Z,18.33
2023-01-23T06:22:32.839Z,20.47
2023-01-23T06:24:59.480Z,19.10
2023-01-23T06:27:26.210Z,20.17
2023-01-23T06:29:52.935Z,19.80
2023-01-23T06:32:19.599Z,19.47
2023-01-23T06:34:46.278Z,19.87
2023-01-23T06:37:12.895Z,20.43
2023-01-23T06:39:39.645Z,21.17
2023-01-23T06:42:09.812Z,21.53
2023-01-23T06:44:37.271Z,22.13
2023-01-23T06:47:04.274Z,19.90
2023-01-23T06:49:31.056Z,21.60
2023-01-23T06:51:57.858Z,23.65
2023-01-23T06:54:24.566Z,21.40
2023-01-23T06:56:51.607Z,27.17
2023-01-23T06:59:18.264Z,22.00
2023-01-23T07:01:45.000Z,22.30
2023-01-23T07:04:11.685Z,20.30
2023-01-23T07:06:38.454Z,19.17
2023-01-23T07:09:05.118Z,21.53
2023-01-23T07:11:31.771Z,20.47
2023-01-23T07:13:58.815Z,20.83
2023-01-23T07:16:25.573Z,21.80
2023-01-23T07:18:52.406Z,21.23
2023-01-23T07:21:19.072Z,21.23
2023-01-23T07:23:45.695Z,20.73
2023-01-23T07:26:12.628Z,21.33
2023-01-23T07:28:40.003Z,21.53
2023-01-23T07:31:06.955Z,22.77
2023-01-23T07:33:33.873Z,22.43
2023-01-23T07:36:00.613Z,23.63
2023-01-23T07:38:28.005Z,22.57
2023-01-23T07:40:58.237Z,23.93
2023-01-23T07:43:25.238Z,22.77
2023-01-23T07:45:52.191Z,22.80
2023-01-23T07:48:18.866Z,22.97
2023-01-23T07:50:45.512Z,22.13
2023-01-23T07:53:12.148Z,24.17
2023-01-23T07:55:39.150Z,23.60
2023-01-23T07:58:05.856Z,22.23
2023-01-23T08:00:32.746Z,23.37
2023-01-23T08:02:59.462Z,24.63
2023-01-23T08:05:26.322Z,23.87
2023-01-23T08:08:07.372Z,22.63
2023-01-23T08:10:39.121Z,22.53
2023-01-23T08:13:05.786Z,21.93
2023-01-23T08:15:32.490Z,22.20
2023-01-23T08:17:59.122Z,23.17
2023-01-23T08:20:25.797Z,23.17
2023-01-23T08:22:52.473Z,24.10
2023-01-23T08:25:19.209Z,24.27
2023-01-23T08:27:45.915Z,23.03
2023-01-23T08:30:12.893Z,23.43
2023-01-23T08:32:39.550Z,25.17
2023-01-23T08:35:06.611Z,23.17
2023-01-23T08:37:34.409Z,23.43
2023-01-23T08:40:01.145Z,22.83
2023-01-23T08:42:28.099Z,23.17
2023-01-23T08:44:55.547Z,22.80
2023-01-23T08:47:22.283Z,22.27
2023-01-23T08:49:48.941Z,23.23
2023-01-23T08:52:15.682Z,22.53
2023-01-23T08:54:42.323Z,22.13
2023-01-23T08:57:09.065Z,22.23
2023-01-23T08:59:35.805Z,22.87
2023-01-23T09:02:02.587Z,22.57
2023-01-23T09:04:29.358Z,21.67
2023-01-23T09:06:56.006Z,23.13
2023-01-23T09:09:22.743Z,22.67
2023-01-23T09:11:49.378Z,22.83
2023-01-23T09:14:16.065Z,22.40
2023-01-23T09:16:42.872Z,21.97
2023-01-23T09:19:11.971Z,21.00
2023-01-23T09:21:39.009Z,21.80
2023-01-23T09:24:05.959Z,21.60
2023-01-23T09:26:32.652Z,21.57
2023-01-23T09:28:59.282Z,21.67
2023-01-23T09:31:26.080Z,21.03
2023-01-23T09:33:52.849Z,20.97
2023-01-23T09:36:23.403Z,20.63
2023-01-23T09:38:54.190Z,22.40
2023-01-23T09:41:25.480Z,21.00
2023-01-23T09:44:07.783Z,22.17
2023-01-23T09:46:54.837Z,20.73
2023-01-23T09:49:28.088Z,22.00
2023-01-23T09:52:11.244Z,21.33
2023-01-23T09:54:47.059Z,21.53
2023-01-23T09:57:21.060Z,20.30
2023-01-23T10:00:04.905Z,20.97
2023-01-23T10:02:31.633Z,20.37
2023-01-23T10:04:59.716Z,19.50
2023-01-23T10:07:38.199Z,19.13
2023-01-23T10:10:18.013Z,20.13
2023-01-23T10:12:54.953Z,20.30
2023-01-23T10:15:43.075Z,20.07
2023-01-23T10:18:47.447Z,19.87
2023-01-23T10:21:52.424Z,18.87
2023-01-23T10:24:40.626Z,19.63
2023-01-23T10:27:41.563Z,20.20
2023-01-23T10:30:29.727Z,18.87
2023-01-23T10:33:01.639Z,17.87
2023-01-23T10:35:50.953Z,19.50
2023-01-23T10:38:25.588Z,18.90
2023-01-23T10:41:11.147Z,19.70
2023-01-23T10:43:38.164Z,18.63
2023-01-23T10:46:21.409Z,18.70
2023-01-23T10:48:54.867Z,16.93
2023-01-23T10:51:33.280Z,17.60
2023-01-23T10:54:31.438Z,18.10
2023-01-23T10:57:18.632Z,18.10
2023-01-23T11:00:04.311Z,18.07
2023-01-23T11:02:34.539Z,17.83
2023-01-23T11:05:04.187Z,17.93
2023-01-23T11:07:36.711Z,17.60
2023-01-23T11:10:21.427Z,18.07
2023-01-23T11:12:50.732Z,18.40
2023-01-23T11:15:25.861Z,17.27
2023-01-23T11:17:55.025Z,17.40
2023-01-23T11:20:31.869Z,18.43
2023-01-23T11:23:01.441Z,18.13
2023-01-23T11:25:37.927Z,18.50
2023-01-23T11:28:18.891Z,19.00
2023-01-23T11:30:50.413Z,18.47
2023-01-23T11:33:47.781Z,19.47
2023-01-23T11:36:17.314Z,19.20
2023-01-23T11:39:04.959Z,17.97
2023-01-23T11:41:34.262Z,17.90
2023-01-23T11:44:07.867Z,18.97
2023-01-23T11:47:13.599Z,17.93
2023-01-23T11:50:10.816Z,19.57
2023-01-23T11:52:53.585Z,18.80
2023-01-23T11:55:34.963Z,18.37
2023-01-23T11:58:32.139Z,18.67
2023-01-23T12:01:19.345Z,18.30
2023-01-23T12:04:18.569Z,17.67
2023-01-23T12:07:08.578Z,17.03
2023-01-23T12:09:43.045Z,17.77
2023-01-23T12:12:26.190Z,18.90
2023-01-23T12:15:05.819Z,17.70
2023-01-23T12:17:41.327Z,17.07
2023-01-23T12:20:37.914Z,16.70
2023-01-23T12:23:27.851Z,16.57
2023-01-23T12:26:11.909Z,17.97
2023-01-23T12:29:00.287Z,17.07
2023-01-23T12:31:38.145Z,17.30
2023-01-23T12:34:36.897Z,16.90
2023-01-23T12:37:29.965Z,17.50
2023-01-23T12:40:10.058Z,16.60
2023-01-23T12:42:54.960Z,16.90
2023-01-23T12:45:27.671Z,16.77
2023-01-23T12:48:12.596Z,16.53
2023-01-23T12:51:05.769Z,16.37
2023-01-23T12:53:37.412Z,16.67
2023-01-23T12:56:27.914Z,17.00
2023-01-23T12:59:48.623Z,17.40
2023-01-23T13:02:29.997Z,16.43
2023-01-23T13:05:27.579Z,15.83
2023-01-23T13:07:57.015Z,16.87
2023-01-23T13:11:03.392Z,16.30
2023-01-23T13:13:30.649Z,15.60
2023-01-23T13:16:15.629Z,16.53
2023-01-23T13:19:12.369Z,15.13
2023-01-23T13:21:58.006Z,15.60
2023-01-23T13:24:52.065Z,15.20
2023-01-23T13:27:36.385Z,14.90
2023-01-23T13:30:05.602Z,16.13
2023-01-23T13:32:32.424Z,15.00
2023-01-23T13:34:59.148Z,15.07
2023-01-23T13:37:38.942Z,15.47
2023-01-23T13:40:11.604Z,15.73
2023-01-23T13:42:38.303Z,14.83
2023-01-23T13:45:27.627Z,15.13
2023-01-23T14:22:35.744Z,16.57
2023-01-23T14:25:02.565Z,18.00
2023-01-23T14:27:52.147Z,17.80
2023-01-23T14:30:26.938Z,18.03
2023-01-23T14:32:54.530Z,16.73
2023-01-23T14:35:27.381Z,18.97
2023-01-23T14:37:57.073Z,18.70
2023-01-23T14:40:28.070Z,19.60
2023-01-23T14:43:10.032Z,19.57
2023-01-23T14:45:37.563Z,19.77
2023-01-23T14:48:13.692Z,20.37
2023-01-23T14:50:40.514Z,18.33
2023-01-23T14:53:13.714Z,19.33
2023-01-23T14:55:42.806Z,20.57
2023-01-23T14:58:35.787Z,21.10
2023-01-23T15:01:02.912Z,21.73
2023-01-23T15:03:36.781Z,20.03
2023-01-23T15:06:08.467Z,19.87
2023-01-23T15:08:36.687Z,20.10
2023-01-23T15:11:06.418Z,20.30
2023-01-23T15:13:40.492Z,20.80
2023-01-23T15:16:15.030Z,19.77
2023-01-23T15:18:55.783Z,19.20
2023-01-23T15:21:37.482Z,21.17
2023-01-23T15:24:13.328Z,21.43
2023-01-23T15:26:56.693Z,21.00
2023-01-23T15:29:23.617Z,20.53
2023-01-23T15:31:52.533Z,21.93
2023-01-23T15:34:25.855Z,22.03
2023-01-23T15:37:05.403Z,21.37
2023-01-23T15:39:54.587Z,21.90
2023-01-23T15:42:30.288Z,22.23
2023-01-23T15:45:01.188Z,20.47
2023-01-23T15:47:32.204Z,21.27
2023-01-23T15:50:01.672Z,20.50
2023-01-23T15:52:46.600Z,21.50
2023-01-23T15:55:13.768Z,20.83
2023-01-23T15:57:41.855Z,21.53
2023-01-23T16:00:24.663Z,21.33
2023-01-23T16:02:57.490Z,21.00
2023-01-23T16:05:27.481Z,20.50
2023-01-23T16:07:55.870Z,19.80
2023-01-23T16:10:24.668Z,21.17
2023-01-23T16:12:54.056Z,20.90
2023-01-23T16:15:26.729Z,19.57
2023-01-23T16:17:54.038Z,18.67
2023-01-23T16:20:23.394Z,19.73
2023-01-23T16:22:52.632Z,18.93
2023-01-23T16:25:42.934Z,21.53
2023-01-23T16:28:15.341Z,20.37
2023-01-23T16:30:42.342Z,20.83
2023-01-23T16:33:09.474Z,20.43
2023-01-23T16:35:36.495Z,19.83
2023-01-23T16:38:03.541Z,19.73
2023-01-23T16:40:31.117Z,19.77
2023-01-23T16:42:58.316Z,21.03
2023-01-23T16:45:28.706Z,18.33
2023-01-23T16:47:55.504Z,19.33
2023-01-23T16:50:30.333Z,19.57
2023-01-23T16:53:03.068Z,20.53
2023-01-23T16:55:39.722Z,20.47
2023-01-23T16:58:08.367Z,20.93
2023-01-23T17:00:35.855Z,20.07
2023-01-23T17:03:08.041Z,21.23
2023-01-23T17:05:34.673Z,20.23
2023-01-23T17:08:02.669Z,21.27
2023-01-23T17:10:38.023Z,21.60
2023-01-23T17:13:12.125Z,20.40
2023-01-23T17:15:38.787Z,21.57
2023-01-23T17:18:05.608Z,20.90
2023-01-23T17:20:32.380Z,22.43
2023-01-23T17:22:59.138Z,21.83
2023-01-23T17:25:27.063Z,21.33
2023-01-23T17:28:11.613Z,21.30
2023-01-23T17:30:40.851Z,20.73
2023-01-23T17:33:27.466Z,21.77
2023-01-23T17:35:54.379Z,20.57
2023-01-23T17:38:23.723Z,20.63
2023-01-23T17:40:50.928Z,20.53
2023-01-23T17:43:20.051Z,20.97
2023-01-23T17:45:50.268Z,19.80
2023-01-23T17:48:22.204Z,20.53
2023-01-23T17:50:48.937Z,20.73
2023-01-23T17:53:16.921Z,20.20
2023-01-23T17:55:47.961Z,20.17
2023-01-23T17:58:15.426Z,19.60
2023-01-23T18:00:43.691Z,19.83
2023-01-23T18:03:17.119Z,20.00
2023-01-23T18:05:43.884Z,20.43
2023-01-23T18:08:14.904Z,18.50
2023-01-23T18:10:44.760Z,19.47
2023-01-23T18:13:32.854Z,20.13
2023-01-23T18:16:10.392Z,19.53
2023-01-23T18:18:39.918Z,19.27
2023-01-23T18:21:13.881Z,17.50
2023-01-23T18:23:41.057Z,20.43
2023-01-23T18:26:27.926Z,19.80
2023-01-23T18:29:09.777Z,19.37
2023-01-23T18:31:36.634Z,19.00
2023-01-23T18:34:15.161Z,18.23
2023-01-23T18:36:48.025Z,18.90
2023-01-23T18:39:34.053Z,18.70
2023-01-23T18:42:15.507Z,17.70
2023-01-23T18:45:09.621Z,18.43
2023-01-23T18:47:36.683Z,19.37
2023-01-23T18:50:03.890Z,19.03
2023-01-23T18:52:54.879Z,18.63
2023-01-23T18:55:32.618Z,18.57
2023-01-23T18:58:27.006Z,20.27
2023-01-23T19:01:13.449Z,17.73
2023-01-23T19:03:44.661Z,17.73
2023-01-23T19:06:34.882Z,18.37
2023-01-23T19:09:01.920Z,18.53
2023-01-23T19:11:31.811Z,18.33
2023-01-23T19:14:14.777Z,17.87
2023-01-23T19:16:49.006Z,18.03
2023-01-23T19:19:40.263Z,18.27
2023-01-23T19:22:12.257Z,18.77
2023-01-23T19:24:39.458Z,16.97
2023-01-23T19:27:25.721Z,17.93
2023-01-23T19:29:52.540Z,17.70
2023-01-23T19:32:19.622Z,15.93
2023-01-23T19:34:46.265Z,16.53
2023-01-23T19:37:13.961Z,17.13
2023-01-23T19:39:40.861Z,16.80
2023-01-23T19:42:14.355Z,16.97
2023-01-23T19:44:41.790Z,17.60
2023-01-23T19:47:08.912Z,18.77
2023-01-23T19:49:35.637Z,19.47
2023-01-23T19:52:02.305Z,18.03
2023-01-23T19:54:29.047Z,18.50
2023-01-23T19:56:55.780Z,18.63
2023-01-23T19:59:22.539Z,17.87
2023-01-23T20:01:51.042Z,18.53
2023-01-23T20:04:20.705Z,17.13
2023-01-23T20:06:53.949Z,18.93
2023-01-23T20:09:21.045Z,17.70
2023-01-23T20:11:48.433Z,16.73
2023-01-23T20:14:15.160Z,17.37
2023-01-23T20:16:43.181Z,18.23
2023-01-23T20:19:14.755Z,18.47
2023-01-23T20:21:41.964Z,17.73
2023-01-23T20:24:08.843Z,18.40
2023-01-23T20:26:36.089Z,16.67
2023-01-23T20:29:04.049Z,17.07
2023-01-23T20:31:31.079Z,16.77
2023-01-23T20:33:57.838Z,17.20
2023-01-23T20:36:24.497Z,17.10
2023-01-23T20:38:51.125Z,17.97
2023-01-23T20:41:19.549Z,18.47
2023-01-23T20:43:47.286Z,17.77
2023-01-23T20:46:16.270Z,16.47
2023-01-23T20:48:44.258Z,15.70
2023-01-23T20:51:12.444Z,16.73
2023-01-23T20:53:40.057Z,15.63
2023-01-23T20:56:12.384Z,15.07
2023-01-23T20:59:00.851Z,15.80
2023-01-23T21:01:30.749Z,15.43
2023-01-23T21:03:57.487Z,15.60
2023-01-23T21:06:24.279Z,16.13
2023-01-23T21:08:50.944Z,16.20
2023-01-23T21:11:19.704Z,15.50
2023-01-23T21:13:51.640Z,16.57
2023-01-23T21:16:20.303Z,15.53
2023-01-23T21:18:48.050Z,15.93
2023-01-23T21:21:17.500Z,15.07
2023-01-23T21:23:48.615Z,14.70
2023-01-23T21:26:17.063Z,13.70
2023-01-23T21:28:43.864Z,16.37
2023-01-23T21:31:13.501Z,16.70
2023-01-23T21:33:44.120Z,14.90
2023-01-23T21:36:13.184Z,15.50
2023-01-23T21:38:39.983Z,16.23
2023-01-23T21:41:06.928Z,16.53
2023-01-23T21:43:34.526Z,15.47
2023-01-23T21:46:01.659Z,15.27
2023-01-23T21:48:29.690Z,15.87
2023-01-23T21:51:08.215Z,15.90
2023-01-23T21:53:37.143Z,15.53
2023-01-23T21:56:04.921Z,15.97
2023-01-23T21:58:31.864Z,15.37
2023-01-23T22:01:18.878Z,16.47
2023-01-23T22:03:46.097Z,16.27
2023-01-23T22:06:16.003Z,16.27
2023-01-23T22:08:43.023Z,15.37
2023-01-23T22:11:10.569Z,14.23
2023-01-23T22:13:37.909Z,14.00
2023-01-23T22:16:05.569Z,13.50
2023-01-23T22:18:33.292Z,13.63
2023-01-23T22:21:02.572Z,13.67
2023-01-23T22:23:30.131Z,14.47
2023-01-23T22:25:59.340Z,14.47
2023-01-23T22:28:26.261Z,14.93
2023-01-23T22:30:53.253Z,15.10
2023-01-23T22:33:22.336Z,14.83
2023-01-23T22:35:49.339Z,14.73
2023-01-23T22:38:16.419Z,13.90
2023-01-23T22:40:43.285Z,15.43
2023-01-23T22:43:11.041Z,14.70
2023-01-23T22:45:37.859Z,13.23
2023-01-23T22:48:04.855Z,14.37
2023-01-23T22:50:31.534Z,13.80
2023-01-23T22:52:58.310Z,13.33
2023-01-23T22:55:24.956Z,14.17
2023-01-23T22:57:53.248Z,13.63
2023-01-23T23:00:20.366Z,13.80
2023-01-23T23:02:47.149Z,14.50
2023-01-23T23:05:14.120Z,13.97
2023-01-23T23:07:40.808Z,14.67
2023-01-23T23:10:09.489Z,14.23
2023-01-23T23:12:36.243Z,15.10
2023-01-23T23:15:03.254Z,14.17
2023-01-23T23:17:30.373Z,15.80
2023-01-23T23:19:57.185Z,14.90
2023-01-23T23:22:23.918Z,14.67
2023-01-23T23:24:50.640Z,14.33
2023-01-23T23:27:17.584Z,14.63
2023-01-23T23:29:44.232Z,14.83
2023-01-23T23:32:10.964Z,14.77
2023-01-23T23:34:37.705Z,15.03
2023-01-23T23:37:04.532Z,15.67
2023-01-23T23:39:31.200Z,14.37
2023-01-23T23:41:58.657Z,14.20
2023-01-23T23:44:25.423Z,13.30
2023-01-23T23:46:52.179Z,14.97
2023-01-23T23:49:18.872Z,14.57
2023-01-23T23:51:45.655Z,15.40
2023-01-23T23:54:12.357Z,14.30
2023-01-23T23:56:39.312Z,14.97
2023-01-23T23:59:06.066Z,14.53
